sensor_id;sensor_type;location;lat;lon;timestamp;P1;durP1;ratioP1;P2;durP2;ratioP2
81697;SDS011;71109;52.514;5.708;2023-08-21T00:00:01;8.13;;;3.03;;
81697;SDS011;71109;52.514;5.708;2023-08-21T00:02:29;7.88;;;2.67;;
81697;SDS011;71109;52.514;5.708;2023-08-21T00:04:54;5.32;;;2.20;;
81697;SDS011;71109;52.514;5.708;2023-08-21T00:07:19;5.10;;;2.30;;
81697;SDS011;71109;52.514;5.708;2023-08-21T00:09:45;6.63;;;2.17;;
81697;SDS011;71109;52.514;5.708;2023-08-21T00:12:10;8.15;;;2.97;;
81697;SDS011;71109;52.514;5.708;2023-08-21T00:14:36;5.78;;;2.35;;
81697;SDS011;71109;52.514;5.708;2023-08-21T00:17:01;4.93;;;2.13;;
81697;SDS011;71109;52.514;5.708;2023-08-21T00:19:28;7.70;;;2.83;;
81697;SDS011;71109;52.514;5.708;2023-08-21T00:21:55;3.35;;;2.15;;
81697;SDS011;71109;52.514;5.708;2023-08-21T00:24:20;4.13;;;2.22;;
81697;SDS011;71109;52.514;5.708;2023-08-21T00:26:46;4.90;;;2.15;;
81697;SDS011;71109;52.514;5.708;2023-08-21T00:29:11;5.13;;;3.20;;
81697;SDS011;71109;52.514;5.708;2023-08-21T00:31:36;12.27;;;3.28;;
81697;SDS011;71109;52.514;5.708;2023-08-21T00:34:02;11.60;;;3.67;;
81697;SDS011;71109;52.514;5.708;2023-08-21T00:36:27;9.20;;;3.30;;
81697;SDS011;71109;52.514;5.708;2023-08-21T00:38:52;13.63;;;3.77;;
81697;SDS011;71109;52.514;5.708;2023-08-21T00:41:18;9.57;;;3.15;;
81697;SDS011;71109;52.514;5.708;2023-08-21T00:43:43;7.63;;;3.28;;
81697;SDS011;71109;52.514;5.708;2023-08-21T00:46:08;12.80;;;4.28;;
81697;SDS011;71109;52.514;5.708;2023-08-21T00:48:34;4.57;;;2.58;;
81697;SDS011;71109;52.514;5.708;2023-08-21T00:51:00;7.22;;;3.75;;
81697;SDS011;71109;52.514;5.708;2023-08-21T00:53:25;11.77;;;3.17;;
81697;SDS011;71109;52.514;5.708;2023-08-21T00:55:51;6.25;;;2.67;;
81697;SDS011;71109;52.514;5.708;2023-08-21T00:58:16;10.02;;;3.22;;
81697;SDS011;71109;52.514;5.708;2023-08-21T01:00:44;7.22;;;2.17;;
81697;SDS011;71109;52.514;5.708;2023-08-21T01:03:10;6.95;;;3.35;;
81697;SDS011;71109;52.514;5.708;2023-08-21T01:05:35;8.70;;;3.08;;
81697;SDS011;71109;52.514;5.708;2023-08-21T01:08:02;9.20;;;3.60;;
81697;SDS011;71109;52.514;5.708;2023-08-21T01:15:59;8.40;;;3.05;;
81697;SDS011;71109;52.514;5.708;2023-08-21T01:18:25;7.53;;;3.22;;
81697;SDS011;71109;52.514;5.708;2023-08-21T01:20:52;6.53;;;3.15;;
81697;SDS011;71109;52.514;5.708;2023-08-21T01:26:01;7.45;;;3.72;;
81697;SDS011;71109;52.514;5.708;2023-08-21T01:28:27;9.73;;;3.60;;
81697;SDS011;71109;52.514;5.708;2023-08-21T01:30:55;9.98;;;3.53;;
81697;SDS011;71109;52.514;5.708;2023-08-21T01:33:24;6.28;;;3.25;;
81697;SDS011;71109;52.514;5.708;2023-08-21T01:35:51;7.22;;;3.55;;
81697;SDS011;71109;52.514;5.708;2023-08-21T01:38:17;6.82;;;4.10;;
81697;SDS011;71109;52.514;5.708;2023-08-21T01:40:42;7.00;;;4.10;;
81697;SDS011;71109;52.514;5.708;2023-08-21T01:43:08;15.10;;;4.25;;
81697;SDS011;71109;52.514;5.708;2023-08-21T01:45:33;15.17;;;3.67;;
81697;SDS011;71109;52.514;5.708;2023-08-21T01:47:58;10.70;;;3.65;;
81697;SDS011;71109;52.514;5.708;2023-08-21T01:50:24;6.97;;;3.27;;
81697;SDS011;71109;52.514;5.708;2023-08-21T01:52:49;8.93;;;3.43;;
81697;SDS011;71109;52.514;5.708;2023-08-21T01:55:14;5.57;;;3.60;;
81697;SDS011;71109;52.514;5.708;2023-08-21T01:57:40;6.70;;;3.38;;
81697;SDS011;71109;52.514;5.708;2023-08-21T02:00:07;11.77;;;5.72;;
81697;SDS011;71109;52.514;5.708;2023-08-21T02:02:33;7.53;;;3.83;;
81697;SDS011;71109;52.514;5.708;2023-08-21T02:04:58;10.23;;;4.10;;
81697;SDS011;71109;52.514;5.708;2023-08-21T02:07:24;8.85;;;3.38;;
81697;SDS011;71109;52.514;5.708;2023-08-21T02:09:49;10.10;;;3.83;;
81697;SDS011;71109;52.514;5.708;2023-08-21T02:12:15;12.43;;;3.53;;
81697;SDS011;71109;52.514;5.708;2023-08-21T02:14:40;17.50;;;5.23;;
81697;SDS011;71109;52.514;5.708;2023-08-21T02:17:05;9.13;;;4.53;;
81697;SDS011;71109;52.514;5.708;2023-08-21T02:19:31;8.15;;;4.00;;
81697;SDS011;71109;52.514;5.708;2023-08-21T02:21:56;13.00;;;3.67;;
81697;SDS011;71109;52.514;5.708;2023-08-21T02:24:21;7.23;;;3.60;;
81697;SDS011;71109;52.514;5.708;2023-08-21T02:26:47;10.95;;;4.38;;
81697;SDS011;71109;52.514;5.708;2023-08-21T02:29:12;7.50;;;3.58;;
81697;SDS011;71109;52.514;5.708;2023-08-21T02:31:37;10.40;;;3.33;;
81697;SDS011;71109;52.514;5.708;2023-08-21T02:34:03;5.63;;;3.25;;
81697;SDS011;71109;52.514;5.708;2023-08-21T02:36:28;11.63;;;3.22;;
81697;SDS011;71109;52.514;5.708;2023-08-21T02:38:55;8.45;;;3.67;;
81697;SDS011;71109;52.514;5.708;2023-08-21T02:41:20;11.48;;;3.85;;
81697;SDS011;71109;52.514;5.708;2023-08-21T02:43:46;5.30;;;2.95;;
81697;SDS011;71109;52.514;5.708;2023-08-21T02:46:11;7.50;;;2.80;;
81697;SDS011;71109;52.514;5.708;2023-08-21T02:48:36;6.05;;;2.80;;
81697;SDS011;71109;52.514;5.708;2023-08-21T02:51:02;11.65;;;3.50;;
81697;SDS011;71109;52.514;5.708;2023-08-21T02:53:28;8.52;;;3.15;;
81697;SDS011;71109;52.514;5.708;2023-08-21T02:55:53;10.15;;;2.88;;
81697;SDS011;71109;52.514;5.708;2023-08-21T02:58:19;7.47;;;3.40;;
81697;SDS011;71109;52.514;5.708;2023-08-21T03:00:44;6.67;;;3.37;;
81697;SDS011;71109;52.514;5.708;2023-08-21T03:03:09;7.20;;;3.38;;
81697;SDS011;71109;52.514;5.708;2023-08-21T03:05:36;8.45;;;4.18;;
81697;SDS011;71109;52.514;5.708;2023-08-21T03:08:01;7.78;;;3.05;;
81697;SDS011;71109;52.514;5.708;2023-08-21T03:10:27;4.10;;;2.83;;
81697;SDS011;71109;52.514;5.708;2023-08-21T03:12:54;7.90;;;3.90;;
81697;SDS011;71109;52.514;5.708;2023-08-21T03:15:19;6.85;;;3.47;;
81697;SDS011;71109;52.514;5.708;2023-08-21T03:17:45;9.63;;;3.72;;
81697;SDS011;71109;52.514;5.708;2023-08-21T03:20:10;7.20;;;3.30;;
81697;SDS011;71109;52.514;5.708;2023-08-21T03:22:36;6.75;;;3.10;;
81697;SDS011;71109;52.514;5.708;2023-08-21T03:25:01;6.07;;;3.43;;
81697;SDS011;71109;52.514;5.708;2023-08-21T03:27:26;9.60;;;3.80;;
81697;SDS011;71109;52.514;5.708;2023-08-21T03:29:52;6.28;;;3.25;;
81697;SDS011;71109;52.514;5.708;2023-08-21T03:32:17;10.68;;;3.67;;
81697;SDS011;71109;52.514;5.708;2023-08-21T03:34:43;11.05;;;3.50;;
81697;SDS011;71109;52.514;5.708;2023-08-21T03:37:09;6.75;;;3.58;;
81697;SDS011;71109;52.514;5.708;2023-08-21T03:39:35;10.02;;;3.50;;
81697;SDS011;71109;52.514;5.708;2023-08-21T03:42:00;7.93;;;3.90;;
81697;SDS011;71109;52.514;5.708;2023-08-21T03:44:25;15.10;;;3.72;;
81697;SDS011;71109;52.514;5.708;2023-08-21T03:46:51;9.63;;;4.53;;
81697;SDS011;71109;52.514;5.708;2023-08-21T03:49:16;12.82;;;4.20;;
81697;SDS011;71109;52.514;5.708;2023-08-21T03:51:42;5.43;;;4.40;;
81697;SDS011;71109;52.514;5.708;2023-08-21T03:54:07;7.30;;;3.47;;
81697;SDS011;71109;52.514;5.708;2023-08-21T03:56:32;12.50;;;3.72;;
81697;SDS011;71109;52.514;5.708;2023-08-21T03:58:58;6.90;;;3.77;;
81697;SDS011;71109;52.514;5.708;2023-08-21T04:01:23;7.93;;;3.83;;
81697;SDS011;71109;52.514;5.708;2023-08-21T04:03:48;9.73;;;3.70;;
81697;SDS011;71109;52.514;5.708;2023-08-21T04:06:14;11.10;;;4.50;;
81697;SDS011;71109;52.514;5.708;2023-08-21T04:08:39;8.00;;;4.35;;
81697;SDS011;71109;52.514;5.708;2023-08-21T04:11:05;11.20;;;4.18;;
81697;SDS011;71109;52.514;5.708;2023-08-21T04:13:31;9.48;;;3.60;;
81697;SDS011;71109;52.514;5.708;2023-08-21T04:15:56;6.07;;;3.55;;
81697;SDS011;71109;52.514;5.708;2023-08-21T04:18:22;9.65;;;3.95;;
81697;SDS011;71109;52.514;5.708;2023-08-21T04:20:48;9.82;;;3.67;;
81697;SDS011;71109;52.514;5.708;2023-08-21T04:23:13;11.75;;;4.20;;
81697;SDS011;71109;52.514;5.708;2023-08-21T04:25:39;9.68;;;4.00;;
81697;SDS011;71109;52.514;5.708;2023-08-21T04:28:04;13.50;;;4.18;;
81697;SDS011;71109;52.514;5.708;2023-08-21T04:30:31;10.07;;;3.50;;
81697;SDS011;71109;52.514;5.708;2023-08-21T04:32:56;7.10;;;3.45;;
81697;SDS011;71109;52.514;5.708;2023-08-21T04:35:21;7.60;;;4.05;;
81697;SDS011;71109;52.514;5.708;2023-08-21T04:37:47;13.10;;;3.58;;
81697;SDS011;71109;52.514;5.708;2023-08-21T04:40:13;12.63;;;3.97;;
81697;SDS011;71109;52.514;5.708;2023-08-21T04:42:38;10.88;;;4.13;;
81697;SDS011;71109;52.514;5.708;2023-08-21T04:45:04;4.67;;;3.17;;
81697;SDS011;71109;52.514;5.708;2023-08-21T04:47:30;10.07;;;3.95;;
81697;SDS011;71109;52.514;5.708;2023-08-21T04:49:56;7.78;;;3.95;;
81697;SDS011;71109;52.514;5.708;2023-08-21T04:52:22;9.68;;;3.70;;
81697;SDS011;71109;52.514;5.708;2023-08-21T04:54:48;8.57;;;3.92;;
81697;SDS011;71109;52.514;5.708;2023-08-21T04:57:14;9.27;;;3.63;;
81697;SDS011;71109;52.514;5.708;2023-08-21T04:59:39;9.48;;;3.75;;
81697;SDS011;71109;52.514;5.708;2023-08-21T05:02:05;11.55;;;4.25;;
81697;SDS011;71109;52.514;5.708;2023-08-21T05:04:30;5.72;;;3.50;;
81697;SDS011;71109;52.514;5.708;2023-08-21T05:06:56;8.70;;;4.20;;
81697;SDS011;71109;52.514;5.708;2023-08-21T05:09:21;4.88;;;3.58;;
81697;SDS011;71109;52.514;5.708;2023-08-21T05:11:46;8.20;;;4.30;;
81697;SDS011;71109;52.514;5.708;2023-08-21T05:14:12;6.43;;;3.75;;
81697;SDS011;71109;52.514;5.708;2023-08-21T05:16:37;8.88;;;4.82;;
81697;SDS011;71109;52.514;5.708;2023-08-21T05:19:03;11.02;;;4.22;;
81697;SDS011;71109;52.514;5.708;2023-08-21T05:21:28;8.40;;;3.78;;
81697;SDS011;71109;52.514;5.708;2023-08-21T05:23:54;9.52;;;4.78;;
81697;SDS011;71109;52.514;5.708;2023-08-21T05:26:19;8.48;;;4.72;;
81697;SDS011;71109;52.514;5.708;2023-08-21T05:28:45;15.10;;;4.80;;
81697;SDS011;71109;52.514;5.708;2023-08-21T05:31:10;8.18;;;4.60;;
81697;SDS011;71109;52.514;5.708;2023-08-21T05:33:35;10.10;;;4.35;;
81697;SDS011;71109;52.514;5.708;2023-08-21T05:36:01;12.07;;;4.80;;
81697;SDS011;71109;52.514;5.708;2023-08-21T05:38:26;10.13;;;4.63;;
81697;SDS011;71109;52.514;5.708;2023-08-21T05:40:52;9.40;;;5.00;;
81697;SDS011;71109;52.514;5.708;2023-08-21T05:43:17;12.43;;;5.00;;
81697;SDS011;71109;52.514;5.708;2023-08-21T05:45:42;16.23;;;5.80;;
81697;SDS011;71109;52.514;5.708;2023-08-21T05:48:08;16.45;;;6.90;;
81697;SDS011;71109;52.514;5.708;2023-08-21T05:50:33;18.85;;;7.55;;
81697;SDS011;71109;52.514;5.708;2023-08-21T05:53:01;17.80;;;6.22;;
81697;SDS011;71109;52.514;5.708;2023-08-21T05:55:28;9.30;;;5.63;;
81697;SDS011;71109;52.514;5.708;2023-08-21T05:57:53;15.30;;;5.30;;
81697;SDS011;71109;52.514;5.708;2023-08-21T06:00:19;13.38;;;6.88;;
81697;SDS011;71109;52.514;5.708;2023-08-21T06:02:44;10.98;;;6.28;;
81697;SDS011;71109;52.514;5.708;2023-08-21T06:05:10;9.85;;;5.03;;
81697;SDS011;71109;52.514;5.708;2023-08-21T06:07:35;9.13;;;4.75;;
81697;SDS011;71109;52.514;5.708;2023-08-21T06:10:00;7.63;;;5.07;;
81697;SDS011;71109;52.514;5.708;2023-08-21T06:12:26;17.77;;;6.13;;
81697;SDS011;71109;52.514;5.708;2023-08-21T06:14:51;13.45;;;6.10;;
81697;SDS011;71109;52.514;5.708;2023-08-21T06:17:17;11.35;;;5.55;;
81697;SDS011;71109;52.514;5.708;2023-08-21T06:19:42;9.07;;;5.03;;
81697;SDS011;71109;52.514;5.708;2023-08-21T06:22:07;16.48;;;4.90;;
81697;SDS011;71109;52.514;5.708;2023-08-21T06:24:33;14.88;;;6.55;;
81697;SDS011;71109;52.514;5.708;2023-08-21T06:26:58;14.75;;;6.63;;
81697;SDS011;71109;52.514;5.708;2023-08-21T06:29:24;11.95;;;5.97;;
81697;SDS011;71109;52.514;5.708;2023-08-21T06:31:49;14.93;;;7.30;;
81697;SDS011;71109;52.514;5.708;2023-08-21T06:34:15;9.32;;;5.82;;
81697;SDS011;71109;52.514;5.708;2023-08-21T06:36:40;16.20;;;7.17;;
81697;SDS011;71109;52.514;5.708;2023-08-21T06:39:05;12.93;;;7.40;;
81697;SDS011;71109;52.514;5.708;2023-08-21T06:41:31;15.03;;;7.63;;
81697;SDS011;71109;52.514;5.708;2023-08-21T06:43:56;16.00;;;6.70;;
81697;SDS011;71109;52.514;5.708;2023-08-21T06:46:22;16.20;;;6.30;;
81697;SDS011;71109;52.514;5.708;2023-08-21T06:48:47;19.73;;;7.85;;
81697;SDS011;71109;52.514;5.708;2023-08-21T06:51:15;13.77;;;6.07;;
81697;SDS011;71109;52.514;5.708;2023-08-21T06:53:40;16.23;;;6.57;;
81697;SDS011;71109;52.514;5.708;2023-08-21T06:56:06;14.52;;;6.38;;
81697;SDS011;71109;52.514;5.708;2023-08-21T06:58:32;16.50;;;6.65;;
81697;SDS011;71109;52.514;5.708;2023-08-21T07:00:59;20.80;;;7.05;;
81697;SDS011;71109;52.514;5.708;2023-08-21T07:03:25;15.18;;;6.82;;
81697;SDS011;71109;52.514;5.708;2023-08-21T07:05:54;14.52;;;8.70;;
81697;SDS011;71109;52.514;5.708;2023-08-21T07:08:22;15.45;;;6.70;;
81697;SDS011;71109;52.514;5.708;2023-08-21T07:10:48;15.00;;;6.78;;
81697;SDS011;71109;52.514;5.708;2023-08-21T07:13:14;13.55;;;6.05;;
81697;SDS011;71109;52.514;5.708;2023-08-21T07:15:39;16.63;;;6.35;;
81697;SDS011;71109;52.514;5.708;2023-08-21T07:18:04;16.15;;;6.03;;
81697;SDS011;71109;52.514;5.708;2023-08-21T07:20:30;19.02;;;5.07;;
81697;SDS011;71109;52.514;5.708;2023-08-21T07:22:55;13.13;;;5.15;;
81697;SDS011;71109;52.514;5.708;2023-08-21T07:25:21;16.95;;;6.20;;
81697;SDS011;71109;52.514;5.708;2023-08-21T07:27:46;11.98;;;4.32;;
81697;SDS011;71109;52.514;5.708;2023-08-21T07:30:11;16.63;;;4.97;;
81697;SDS011;71109;52.514;5.708;2023-08-21T07:32:37;14.75;;;5.60;;
81697;SDS011;71109;52.514;5.708;2023-08-21T07:35:02;12.98;;;4.47;;
81697;SDS011;71109;52.514;5.708;2023-08-21T07:37:28;23.00;;;6.40;;
81697;SDS011;71109;52.514;5.708;2023-08-21T07:39:53;12.57;;;4.00;;
81697;SDS011;71109;52.514;5.708;2023-08-21T07:42:22;11.55;;;4.35;;
81697;SDS011;71109;52.514;5.708;2023-08-21T07:44:48;14.88;;;4.68;;
81697;SDS011;71109;52.514;5.708;2023-08-21T07:47:13;12.30;;;5.23;;
81697;SDS011;71109;52.514;5.708;2023-08-21T07:49:38;16.85;;;4.53;;
81697;SDS011;71109;52.514;5.708;2023-08-21T07:52:04;17.52;;;4.30;;
81697;SDS011;71109;52.514;5.708;2023-08-21T07:54:29;17.80;;;3.97;;
81697;SDS011;71109;52.514;5.708;2023-08-21T07:56:55;19.98;;;4.22;;
81697;SDS011;71109;52.514;5.708;2023-08-21T07:59:20;13.23;;;5.43;;
81697;SDS011;71109;52.514;5.708;2023-08-21T08:01:45;10.55;;;3.63;;
81697;SDS011;71109;52.514;5.708;2023-08-21T08:04:11;9.67;;;3.40;;
81697;SDS011;71109;52.514;5.708;2023-08-21T08:06:36;13.70;;;3.38;;
81697;SDS011;71109;52.514;5.708;2023-08-21T08:09:01;5.23;;;3.27;;
81697;SDS011;71109;52.514;5.708;2023-08-21T08:11:28;10.65;;;3.33;;
81697;SDS011;71109;52.514;5.708;2023-08-21T08:13:54;10.27;;;2.50;;
81697;SDS011;71109;52.514;5.708;2023-08-21T08:16:20;12.10;;;2.33;;
81697;SDS011;71109;52.514;5.708;2023-08-21T08:18:46;13.10;;;3.25;;
81697;SDS011;71109;52.514;5.708;2023-08-21T08:21:11;9.73;;;2.28;;
81697;SDS011;71109;52.514;5.708;2023-08-21T08:23:36;10.23;;;3.30;;
81697;SDS011;71109;52.514;5.708;2023-08-21T08:26:02;7.70;;;3.80;;
81697;SDS011;71109;52.514;5.708;2023-08-21T08:28:27;5.88;;;3.00;;
81697;SDS011;71109;52.514;5.708;2023-08-21T08:30:53;5.25;;;3.22;;
81697;SDS011;71109;52.514;5.708;2023-08-21T08:33:18;11.38;;;2.83;;
81697;SDS011;71109;52.514;5.708;2023-08-21T08:35:43;20.52;;;4.40;;
81697;SDS011;71109;52.514;5.708;2023-08-21T08:38:09;8.95;;;2.75;;
81697;SDS011;71109;52.514;5.708;2023-08-21T08:40:35;10.90;;;3.05;;
81697;SDS011;71109;52.514;5.708;2023-08-21T08:43:02;12.40;;;2.15;;
81697;SDS011;71109;52.514;5.708;2023-08-21T08:45:30;17.33;;;3.58;;
81697;SDS011;71109;52.514;5.708;2023-08-21T08:47:56;9.52;;;2.08;;
81697;SDS011;71109;52.514;5.708;2023-08-21T08:50:24;12.70;;;2.53;;
81697;SDS011;71109;52.514;5.708;2023-08-21T08:52:49;7.63;;;2.85;;
81697;SDS011;71109;52.514;5.708;2023-08-21T08:55:15;18.83;;;4.10;;
81697;SDS011;71109;52.514;5.708;2023-08-21T08:57:40;13.50;;;3.40;;
81697;SDS011;71109;52.514;5.708;2023-08-21T09:00:06;9.77;;;2.17;;
81697;SDS011;71109;52.514;5.708;2023-08-21T09:02:32;6.57;;;2.90;;
81697;SDS011;71109;52.514;5.708;2023-08-21T09:04:57;11.63;;;3.10;;
81697;SDS011;71109;52.514;5.708;2023-08-21T09:07:23;4.75;;;2.72;;
81697;SDS011;71109;52.514;5.708;2023-08-21T09:09:49;8.48;;;2.22;;
81697;SDS011;71109;52.514;5.708;2023-08-21T09:12:16;5.10;;;2.50;;
81697;SDS011;71109;52.514;5.708;2023-08-21T09:14:42;13.02;;;2.55;;
81697;SDS011;71109;52.514;5.708;2023-08-21T09:17:08;9.05;;;2.17;;
81697;SDS011;71109;52.514;5.708;2023-08-21T09:19:34;9.07;;;2.65;;
81697;SDS011;71109;52.514;5.708;2023-08-21T09:22:09;4.13;;;1.80;;
81697;SDS011;71109;52.514;5.708;2023-08-21T09:24:37;15.20;;;2.80;;
81697;SDS011;71109;52.514;5.708;2023-08-21T09:27:03;11.80;;;2.97;;
81697;SDS011;71109;52.514;5.708;2023-08-21T09:29:38;10.90;;;3.25;;
81697;SDS011;71109;52.514;5.708;2023-08-21T09:32:05;8.07;;;2.13;;
81697;SDS011;71109;52.514;5.708;2023-08-21T09:34:34;4.03;;;1.75;;
81697;SDS011;71109;52.514;5.708;2023-08-21T09:37:01;8.68;;;2.70;;
81697;SDS011;71109;52.514;5.708;2023-08-21T09:39:32;10.48;;;2.00;;
81697;SDS011;71109;52.514;5.708;2023-08-21T09:41:58;8.02;;;2.42;;
81697;SDS011;71109;52.514;5.708;2023-08-21T09:44:24;10.80;;;2.33;;
81697;SDS011;71109;52.514;5.708;2023-08-21T09:46:49;11.57;;;2.78;;
81697;SDS011;71109;52.514;5.708;2023-08-21T09:49:15;5.90;;;2.40;;
81697;SDS011;71109;52.514;5.708;2023-08-21T09:51:42;11.45;;;2.85;;
81697;SDS011;71109;52.514;5.708;2023-08-21T09:54:10;7.93;;;1.92;;
81697;SDS011;71109;52.514;5.708;2023-08-21T09:56:36;8.57;;;2.20;;
81697;SDS011;71109;52.514;5.708;2023-08-21T09:59:02;21.50;;;3.17;;
81697;SDS011;71109;52.514;5.708;2023-08-21T10:01:27;8.13;;;2.33;;
81697;SDS011;71109;52.514;5.708;2023-08-21T10:03:54;10.80;;;3.17;;
81697;SDS011;71109;52.514;5.708;2023-08-21T10:06:20;13.77;;;4.07;;
81697;SDS011;71109;52.514;5.708;2023-08-21T10:08:46;5.63;;;2.20;;
81697;SDS011;71109;52.514;5.708;2023-08-21T10:11:14;8.18;;;2.47;;
81697;SDS011;71109;52.514;5.708;2023-08-21T10:13:43;10.80;;;2.92;;
81697;SDS011;71109;52.514;5.708;2023-08-21T10:16:09;11.57;;;2.10;;
81697;SDS011;71109;52.514;5.708;2023-08-21T10:18:36;11.88;;;2.75;;
81697;SDS011;71109;52.514;5.708;2023-08-21T10:21:11;9.48;;;2.42;;
81697;SDS011;71109;52.514;5.708;2023-08-21T10:23:38;6.18;;;2.20;;
81697;SDS011;71109;52.514;5.708;2023-08-21T10:26:05;8.15;;;2.80;;
81697;SDS011;71109;52.514;5.708;2023-08-21T10:31:26;10.35;;;3.70;;
81697;SDS011;71109;52.514;5.708;2023-08-21T10:34:01;7.10;;;2.25;;
81697;SDS011;71109;52.514;5.708;2023-08-21T10:39:21;7.13;;;2.20;;
81697;SDS011;71109;52.514;5.708;2023-08-21T10:49:38;9.65;;;2.88;;
81697;SDS011;71109;52.514;5.708;2023-08-21T10:52:03;12.38;;;2.53;;
81697;SDS011;71109;52.514;5.708;2023-08-21T10:54:41;8.50;;;3.50;;
81697;SDS011;71109;52.514;5.708;2023-08-21T10:57:19;4.45;;;1.55;;
81697;SDS011;71109;52.514;5.708;2023-08-21T10:59:51;7.50;;;2.28;;
81697;SDS011;71109;52.514;5.708;2023-08-21T11:02:29;12.07;;;2.83;;
81697;SDS011;71109;52.514;5.708;2023-08-21T11:04:55;9.60;;;2.08;;
81697;SDS011;71109;52.514;5.708;2023-08-21T11:07:21;7.72;;;1.90;;
81697;SDS011;71109;52.514;5.708;2023-08-21T11:09:47;6.38;;;1.67;;
81697;SDS011;71109;52.514;5.708;2023-08-21T11:12:15;6.95;;;1.65;;
81697;SDS011;71109;52.514;5.708;2023-08-21T11:14:42;12.07;;;2.40;;
81697;SDS011;71109;52.514;5.708;2023-08-21T11:17:08;6.35;;;2.63;;
81697;SDS011;71109;52.514;5.708;2023-08-21T11:19:35;9.13;;;2.15;;
81697;SDS011;71109;52.514;5.708;2023-08-21T11:22:01;6.20;;;1.92;;
81697;SDS011;71109;52.514;5.708;2023-08-21T11:24:38;11.27;;;2.50;;
81697;SDS011;71109;52.514;5.708;2023-08-21T11:27:07;6.00;;;2.38;;
81697;SDS011;71109;52.514;5.708;2023-08-21T11:29:38;7.60;;;2.50;;
81697;SDS011;71109;52.514;5.708;2023-08-21T11:32:08;4.18;;;1.17;;
81697;SDS011;71109;52.514;5.708;2023-08-21T11:37:21;9.10;;;1.58;;
81697;SDS011;71109;52.514;5.708;2023-08-21T11:39:49;6.50;;;1.67;;
81697;SDS011;71109;52.514;5.708;2023-08-21T11:42:17;5.97;;;1.65;;
81697;SDS011;71109;52.514;5.708;2023-08-21T11:44:45;8.57;;;1.70;;
81697;SDS011;71109;52.514;5.708;2023-08-21T11:47:12;5.95;;;1.60;;
81697;SDS011;71109;52.514;5.708;2023-08-21T11:49:39;9.43;;;1.80;;
81697;SDS011;71109;52.514;5.708;2023-08-21T11:52:08;6.30;;;1.50;;
81697;SDS011;71109;52.514;5.708;2023-08-21T11:54:37;3.25;;;1.52;;
81697;SDS011;71109;52.514;5.708;2023-08-21T11:57:08;5.53;;;1.42;;
81697;SDS011;71109;52.514;5.708;2023-08-21T11:59:37;7.93;;;2.35;;
81697;SDS011;71109;52.514;5.708;2023-08-21T12:02:09;3.45;;;1.30;;
81697;SDS011;71109;52.514;5.708;2023-08-21T12:04:36;4.85;;;1.23;;
81697;SDS011;71109;52.514;5.708;2023-08-21T12:07:01;3.78;;;1.27;;
81697;SDS011;71109;52.514;5.708;2023-08-21T12:09:27;4.45;;;0.85;;
81697;SDS011;71109;52.514;5.708;2023-08-21T12:11:52;5.43;;;1.37;;
81697;SDS011;71109;52.514;5.708;2023-08-21T12:14:18;4.27;;;1.23;;
81697;SDS011;71109;52.514;5.708;2023-08-21T12:16:43;4.30;;;1.03;;
81697;SDS011;71109;52.514;5.708;2023-08-21T12:19:09;5.72;;;1.40;;
81697;SDS011;71109;52.514;5.708;2023-08-21T12:21:34;7.97;;;2.05;;
81697;SDS011;71109;52.514;5.708;2023-08-21T12:24:02;3.70;;;1.20;;
81697;SDS011;71109;52.514;5.708;2023-08-21T12:26:29;7.68;;;1.50;;
81697;SDS011;71109;52.514;5.708;2023-08-21T12:28:54;5.50;;;1.53;;
81697;SDS011;71109;52.514;5.708;2023-08-21T12:31:20;5.80;;;1.08;;
81697;SDS011;71109;52.514;5.708;2023-08-21T12:33:45;3.27;;;1.27;;
81697;SDS011;71109;52.514;5.708;2023-08-21T12:36:11;6.20;;;1.55;;
81697;SDS011;71109;52.514;5.708;2023-08-21T12:38:36;8.55;;;1.63;;
81697;SDS011;71109;52.514;5.708;2023-08-21T12:41:02;16.02;;;1.67;;
81697;SDS011;71109;52.514;5.708;2023-08-21T12:43:27;6.57;;;1.50;;
81697;SDS011;71109;52.514;5.708;2023-08-21T12:45:53;3.47;;;1.42;;
81697;SDS011;71109;52.514;5.708;2023-08-21T12:48:18;5.93;;;1.95;;
81697;SDS011;71109;52.514;5.708;2023-08-21T12:50:44;9.63;;;1.70;;
81697;SDS011;71109;52.514;5.708;2023-08-21T12:53:09;7.80;;;1.70;;
81697;SDS011;71109;52.514;5.708;2023-08-21T12:55:34;5.40;;;1.70;;
81697;SDS011;71109;52.514;5.708;2023-08-21T12:58:00;10.43;;;1.67;;
81697;SDS011;71109;52.514;5.708;2023-08-21T13:00:26;6.03;;;1.55;;
81697;SDS011;71109;52.514;5.708;2023-08-21T13:02:51;8.90;;;1.70;;
81697;SDS011;71109;52.514;5.708;2023-08-21T13:05:17;5.72;;;1.40;;
81697;SDS011;71109;52.514;5.708;2023-08-21T13:07:42;5.97;;;1.60;;
81697;SDS011;71109;52.514;5.708;2023-08-21T13:10:07;6.38;;;1.23;;
81697;SDS011;71109;52.514;5.708;2023-08-21T13:12:33;11.05;;;2.20;;
81697;SDS011;71109;52.514;5.708;2023-08-21T13:14:59;6.63;;;2.50;;
81697;SDS011;71109;52.514;5.708;2023-08-21T13:17:24;14.93;;;2.75;;
81697;SDS011;71109;52.514;5.708;2023-08-21T13:19:50;9.77;;;2.85;;
81697;SDS011;71109;52.514;5.708;2023-08-21T13:22:16;8.97;;;1.63;;
81697;SDS011;71109;52.514;5.708;2023-08-21T13:24:42;6.65;;;1.27;;
81697;SDS011;71109;52.514;5.708;2023-08-21T13:27:07;7.70;;;2.20;;
81697;SDS011;71109;52.514;5.708;2023-08-21T13:29:32;7.40;;;1.65;;
81697;SDS011;71109;52.514;5.708;2023-08-21T13:31:58;6.95;;;1.58;;
81697;SDS011;71109;52.514;5.708;2023-08-21T13:34:23;6.93;;;1.42;;
81697;SDS011;71109;52.514;5.708;2023-08-21T13:36:49;8.83;;;1.80;;
81697;SDS011;71109;52.514;5.708;2023-08-21T13:39:15;7.72;;;1.35;;
81697;SDS011;71109;52.514;5.708;2023-08-21T13:41:41;6.40;;;1.42;;
81697;SDS011;71109;52.514;5.708;2023-08-21T13:44:06;7.40;;;1.40;;
81697;SDS011;71109;52.514;5.708;2023-08-21T13:46:33;7.13;;;1.52;;
81697;SDS011;71109;52.514;5.708;2023-08-21T13:48:58;5.78;;;1.73;;
81697;SDS011;71109;52.514;5.708;2023-08-21T13:51:24;8.67;;;2.10;;
81697;SDS011;71109;52.514;5.708;2023-08-21T13:53:49;6.07;;;1.80;;
81697;SDS011;71109;52.514;5.708;2023-08-21T13:56:15;5.95;;;1.10;;
81697;SDS011;71109;52.514;5.708;2023-08-21T13:58:40;9.43;;;1.50;;
81697;SDS011;71109;52.514;5.708;2023-08-21T14:01:05;6.65;;;1.27;;
81697;SDS011;71109;52.514;5.708;2023-08-21T14:03:32;9.20;;;2.38;;
81697;SDS011;71109;52.514;5.708;2023-08-21T14:05:58;5.53;;;1.30;;
81697;SDS011;71109;52.514;5.708;2023-08-21T14:08:23;4.50;;;1.63;;
81697;SDS011;71109;52.514;5.708;2023-08-21T14:10:49;10.20;;;1.67;;
81697;SDS011;71109;52.514;5.708;2023-08-21T14:13:14;5.77;;;1.73;;
81697;SDS011;71109;52.514;5.708;2023-08-21T14:15:39;10.23;;;2.73;;
81697;SDS011;71109;52.514;5.708;2023-08-21T14:18:05;14.87;;;2.33;;
81697;SDS011;71109;52.514;5.708;2023-08-21T14:20:30;4.88;;;1.60;;
81697;SDS011;71109;52.514;5.708;2023-08-21T14:22:55;5.53;;;1.33;;
81697;SDS011;71109;52.514;5.708;2023-08-21T14:25:21;7.07;;;2.20;;
81697;SDS011;71109;52.514;5.708;2023-08-21T14:27:47;7.47;;;1.75;;
81697;SDS011;71109;52.514;5.708;2023-08-21T14:30:13;8.30;;;2.28;;
81697;SDS011;71109;52.514;5.708;2023-08-21T14:32:39;10.60;;;1.73;;
81697;SDS011;71109;52.514;5.708;2023-08-21T14:35:04;12.73;;;1.70;;
81697;SDS011;71109;52.514;5.708;2023-08-21T14:37:33;10.23;;;1.67;;
81697;SDS011;71109;52.514;5.708;2023-08-21T14:39:58;7.32;;;1.50;;
81697;SDS011;71109;52.514;5.708;2023-08-21T14:42:23;10.32;;;1.77;;
81697;SDS011;71109;52.514;5.708;2023-08-21T14:44:49;7.00;;;1.50;;
81697;SDS011;71109;52.514;5.708;2023-08-21T14:47:14;1.80;;;1.13;;
81697;SDS011;71109;52.514;5.708;2023-08-21T14:49:40;7.93;;;2.10;;
81697;SDS011;71109;52.514;5.708;2023-08-21T14:52:06;3.90;;;1.33;;
81697;SDS011;71109;52.514;5.708;2023-08-21T14:54:33;5.88;;;1.50;;
81697;SDS011;71109;52.514;5.708;2023-08-21T14:57:01;6.25;;;1.50;;
81697;SDS011;71109;52.514;5.708;2023-08-21T14:59:27;5.50;;;1.63;;